sensor_id;sensor_type;location;lat;lon;timestamp;P1;durP1;ratioP1;P2;durP2;ratioP2
43048;SDS011;28673;44.412;11.918;2023-09-12T00:02:24;17.05;;;11.20;;
43048;SDS011;28673;44.412;11.918;2023-09-12T00:04:50;15.68;;;11.07;;
43048;SDS011;28673;44.412;11.918;2023-09-12T00:07:16;15.07;;;11.05;;
43048;SDS011;28673;44.412;11.918;2023-09-12T00:09:42;15.70;;;11.18;;
43048;SDS011;28673;44.412;11.918;2023-09-12T00:12:07;17.98;;;11.57;;
43048;SDS011;28673;44.412;11.918;2023-09-12T00:14:33;15.10;;;11.15;;
43048;SDS011;28673;44.412;11.918;2023-09-12T00:16:59;18.70;;;11.93;;
43048;SDS011;28673;44.412;11.918;2023-09-12T00:19:25;15.75;;;11.30;;
43048;SDS011;28673;44.412;11.918;2023-09-12T00:21:51;15.18;;;10.77;;
43048;SDS011;28673;44.412;11.918;2023-09-12T00:24:18;13.70;;;10.80;;
43048;SDS011;28673;44.412;11.918;2023-09-12T00:26:44;16.40;;;11.60;;
43048;SDS011;28673;44.412;11.918;2023-09-12T00:29:10;18.60;;;11.68;;
43048;SDS011;28673;44.412;11.918;2023-09-12T00:31:35;18.05;;;11.85;;
43048;SDS011;28673;44.412;11.918;2023-09-12T00:34:01;13.10;;;11.32;;
43048;SDS011;28673;44.412;11.918;2023-09-12T00:36:27;19.50;;;11.27;;
43048;SDS011;28673;44.412;11.918;2023-09-12T00:38:53;18.38;;;12.23;;
43048;SDS011;28673;44.412;11.918;2023-09-12T00:41:19;16.42;;;11.30;;
43048;SDS011;28673;44.412;11.918;2023-09-12T00:43:45;14.25;;;11.52;;
43048;SDS011;28673;44.412;11.918;2023-09-12T00:46:11;14.85;;;11.27;;
43048;SDS011;28673;44.412;11.918;2023-09-12T00:48:43;17.65;;;11.68;;
43048;SDS011;28673;44.412;11.918;2023-09-12T00:51:09;16.98;;;11.57;;
43048;SDS011;28673;44.412;11.918;2023-09-12T00:53:36;17.95;;;12.00;;
43048;SDS011;28673;44.412;11.918;2023-09-12T00:56:02;20.50;;;11.70;;
43048;SDS011;28673;44.412;11.918;2023-09-12T00:58:28;14.73;;;10.73;;
43048;SDS011;28673;44.412;11.918;2023-09-12T01:00:54;17.08;;;12.25;;
43048;SDS011;28673;44.412;11.918;2023-09-12T01:03:21;13.27;;;11.30;;
43048;SDS011;28673;44.412;11.918;2023-09-12T01:05:47;13.27;;;11.05;;
43048;SDS011;28673;44.412;11.918;2023-09-12T01:08:14;18.30;;;11.52;;
43048;SDS011;28673;44.412;11.918;2023-09-12T01:10:40;14.63;;;11.05;;
43048;SDS011;28673;44.412;11.918;2023-09-12T01:13:11;17.00;;;11.88;;
43048;SDS011;28673;44.412;11.918;2023-09-12T01:15:39;18.00;;;10.98;;
43048;SDS011;28673;44.412;11.918;2023-09-12T01:18:05;17.40;;;11.30;;
43048;SDS011;28673;44.412;11.918;2023-09-12T01:20:32;15.40;;;12.10;;
43048;SDS011;28673;44.412;11.918;2023-09-12T01:28:34;14.77;;;10.63;;
43048;SDS011;28673;44.412;11.918;2023-09-12T01:31:02;18.55;;;10.65;;
43048;SDS011;28673;44.412;11.918;2023-09-12T01:33:29;14.93;;;11.20;;
43048;SDS011;28673;44.412;11.918;2023-09-12T01:35:55;14.75;;;10.85;;
43048;SDS011;28673;44.412;11.918;2023-09-12T01:38:21;14.98;;;11.43;;
43048;SDS011;28673;44.412;11.918;2023-09-12T01:40:51;15.35;;;11.70;;
43048;SDS011;28673;44.412;11.918;2023-09-12T01:43:19;17.02;;;10.98;;
43048;SDS011;28673;44.412;11.918;2023-09-12T01:45:48;12.30;;;10.48;;
43048;SDS011;28673;44.412;11.918;2023-09-12T01:48:19;15.35;;;10.68;;
43048;SDS011;28673;44.412;11.918;2023-09-12T01:50:47;12.13;;;10.60;;
43048;SDS011;28673;44.412;11.918;2023-09-12T01:53:14;12.57;;;10.15;;
43048;SDS011;28673;44.412;11.918;2023-09-12T01:55:43;13.07;;;10.23;;
43048;SDS011;28673;44.412;11.918;2023-09-12T01:58:12;13.23;;;10.57;;
43048;SDS011;28673;44.412;11.918;2023-09-12T02:00:39;15.20;;;12.05;;
43048;SDS011;28673;44.412;11.918;2023-09-12T02:03:05;14.35;;;11.05;;
43048;SDS011;28673;44.412;11.918;2023-09-12T02:05:31;18.38;;;11.00;;
43048;SDS011;28673;44.412;11.918;2023-09-12T02:07:57;14.77;;;11.15;;
43048;SDS011;28673;44.412;11.918;2023-09-12T02:10:27;16.50;;;11.77;;
43048;SDS011;28673;44.412;11.918;2023-09-12T02:12:53;18.40;;;12.13;;
43048;SDS011;28673;44.412;11.918;2023-09-12T02:15:19;16.00;;;11.10;;
43048;SDS011;28673;44.412;11.918;2023-09-12T02:17:45;16.63;;;11.75;;
43048;SDS011;28673;44.412;11.918;2023-09-12T02:20:10;21.05;;;10.38;;
43048;SDS011;28673;44.412;11.918;2023-09-12T02:22:36;11.60;;;10.15;;
43048;SDS011;28673;44.412;11.918;2023-09-12T02:25:03;15.45;;;10.23;;
43048;SDS011;28673;44.412;11.918;2023-09-12T02:27:30;12.88;;;10.15;;
43048;SDS011;28673;44.412;11.918;2023-09-12T02:29:56;14.02;;;9.88;;
43048;SDS011;28673;44.412;11.918;2023-09-12T02:32:22;13.45;;;10.23;;
43048;SDS011;28673;44.412;11.918;2023-09-12T02:34:48;17.70;;;9.82;;
43048;SDS011;28673;44.412;11.918;2023-09-12T02:37:14;14.55;;;10.88;;
43048;SDS011;28673;44.412;11.918;2023-09-12T02:39:40;19.17;;;10.85;;
43048;SDS011;28673;44.412;11.918;2023-09-12T02:42:06;14.20;;;10.77;;
43048;SDS011;28673;44.412;11.918;2023-09-12T02:44:32;12.00;;;10.38;;
43048;SDS011;28673;44.412;11.918;2023-09-12T02:46:58;20.13;;;9.75;;
43048;SDS011;28673;44.412;11.918;2023-09-12T02:49:24;12.68;;;9.93;;
43048;SDS011;28673;44.412;11.918;2023-09-12T02:51:51;14.23;;;11.15;;
43048;SDS011;28673;44.412;11.918;2023-09-12T02:54:17;14.60;;;10.23;;
43048;SDS011;28673;44.412;11.918;2023-09-12T02:56:43;14.88;;;10.13;;
43048;SDS011;28673;44.412;11.918;2023-09-12T02:59:09;12.80;;;10.23;;
43048;SDS011;28673;44.412;11.918;2023-09-12T03:01:35;15.75;;;10.75;;
43048;SDS011;28673;44.412;11.918;2023-09-12T03:04:00;15.25;;;10.30;;
43048;SDS011;28673;44.412;11.918;2023-09-12T03:06:27;16.13;;;10.20;;
43048;SDS011;28673;44.412;11.918;2023-09-12T03:08:54;11.15;;;9.20;;
43048;SDS011;28673;44.412;11.918;2023-09-12T03:11:20;13.68;;;10.52;;
43048;SDS011;28673;44.412;11.918;2023-09-12T03:13:45;14.55;;;10.73;;
43048;SDS011;28673;44.412;11.918;2023-09-12T03:16:12;15.25;;;9.32;;
43048;SDS011;28673;44.412;11.918;2023-09-12T03:18:41;13.13;;;9.68;;
43048;SDS011;28673;44.412;11.918;2023-09-12T03:21:06;14.95;;;8.77;;
43048;SDS011;28673;44.412;11.918;2023-09-12T03:23:32;14.52;;;9.13;;
43048;SDS011;28673;44.412;11.918;2023-09-12T03:26:02;16.80;;;9.25;;
43048;SDS011;28673;44.412;11.918;2023-09-12T03:28:32;16.70;;;8.32;;
43048;SDS011;28673;44.412;11.918;2023-09-12T03:31:08;11.20;;;8.07;;
43048;SDS011;28673;44.412;11.918;2023-09-12T03:33:40;10.73;;;9.27;;
43048;SDS011;28673;44.412;11.918;2023-09-12T03:36:07;8.82;;;7.90;;
43048;SDS011;28673;44.412;11.918;2023-09-12T03:38:34;10.35;;;8.55;;
43048;SDS011;28673;44.412;11.918;2023-09-12T03:41:01;10.05;;;8.88;;
43048;SDS011;28673;44.412;11.918;2023-09-12T03:43:27;12.40;;;9.07;;
43048;SDS011;28673;44.412;11.918;2023-09-12T03:45:54;10.70;;;8.90;;
43048;SDS011;28673;44.412;11.918;2023-09-12T03:48:20;11.57;;;9.38;;
43048;SDS011;28673;44.412;11.918;2023-09-12T03:50:46;10.95;;;8.40;;
43048;SDS011;28673;44.412;11.918;2023-09-12T03:53:13;11.95;;;8.00;;
43048;SDS011;28673;44.412;11.918;2023-09-12T03:55:39;17.10;;;9.43;;
43048;SDS011;28673;44.412;11.918;2023-09-12T03:58:05;13.45;;;8.48;;
43048;SDS011;28673;44.412;11.918;2023-09-12T04:00:32;16.02;;;8.73;;
43048;SDS011;28673;44.412;11.918;2023-09-12T04:02:58;12.27;;;8.93;;
43048;SDS011;28673;44.412;11.918;2023-09-12T04:05:24;11.90;;;8.68;;
43048;SDS011;28673;44.412;11.918;2023-09-12T04:07:51;11.65;;;9.40;;
43048;SDS011;28673;44.412;11.918;2023-09-12T04:10:17;15.80;;;9.45;;
43048;SDS011;28673;44.412;11.918;2023-09-12T04:12:45;11.27;;;8.38;;
43048;SDS011;28673;44.412;11.918;2023-09-12T04:15:12;13.57;;;9.70;;
43048;SDS011;28673;44.412;11.918;2023-09-12T04:17:37;14.27;;;8.93;;
43048;SDS011;28673;44.412;11.918;2023-09-12T04:20:04;13.00;;;8.60;;
43048;SDS011;28673;44.412;11.918;2023-09-12T04:22:30;14.98;;;9.18;;
43048;SDS011;28673;44.412;11.918;2023-09-12T04:24:56;11.63;;;8.07;;
43048;SDS011;28673;44.412;11.918;2023-09-12T04:27:22;10.80;;;8.38;;
43048;SDS011;28673;44.412;11.918;2023-09-12T04:29:47;13.05;;;8.65;;
43048;SDS011;28673;44.412;11.918;2023-09-12T04:32:14;12.93;;;8.82;;
43048;SDS011;28673;44.412;11.918;2023-09-12T04:34:44;13.82;;;8.43;;
43048;SDS011;28673;44.412;11.918;2023-09-12T04:37:10;11.02;;;8.27;;
43048;SDS011;28673;44.412;11.918;2023-09-12T04:39:36;11.68;;;8.27;;
43048;SDS011;28673;44.412;11.918;2023-09-12T04:42:02;16.45;;;8.32;;
43048;SDS011;28673;44.412;11.918;2023-09-12T04:44:34;10.90;;;8.05;;
43048;SDS011;28673;44.412;11.918;2023-09-12T04:47:02;11.75;;;8.63;;
43048;SDS011;28673;44.412;11.918;2023-09-12T04:49:28;10.52;;;7.70;;
43048;SDS011;28673;44.412;11.918;2023-09-12T04:51:54;16.20;;;9.65;;
43048;SDS011;28673;44.412;11.918;2023-09-12T04:54:20;14.65;;;8.60;;
43048;SDS011;28673;44.412;11.918;2023-09-12T04:56:46;10.88;;;8.85;;
43048;SDS011;28673;44.412;11.918;2023-09-12T04:59:12;11.45;;;8.95;;
43048;SDS011;28673;44.412;11.918;2023-09-12T05:01:38;12.75;;;9.38;;
43048;SDS011;28673;44.412;11.918;2023-09-12T05:04:04;16.90;;;7.88;;
43048;SDS011;28673;44.412;11.918;2023-09-12T05:06:30;12.43;;;9.30;;
43048;SDS011;28673;44.412;11.918;2023-09-12T05:08:56;11.82;;;8.35;;
43048;SDS011;28673;44.412;11.918;2023-09-12T05:11:22;11.88;;;9.40;;
43048;SDS011;28673;44.412;11.918;2023-09-12T05:13:49;11.05;;;8.65;;
43048;SDS011;28673;44.412;11.918;2023-09-12T05:16:15;11.63;;;8.45;;
43048;SDS011;28673;44.412;11.918;2023-09-12T05:18:42;10.38;;;8.43;;
43048;SDS011;28673;44.412;11.918;2023-09-12T05:21:08;9.98;;;7.72;;
43048;SDS011;28673;44.412;11.918;2023-09-12T05:23:34;13.40;;;7.75;;
43048;SDS011;28673;44.412;11.918;2023-09-12T05:26:00;9.18;;;8.20;;
43048;SDS011;28673;44.412;11.918;2023-09-12T05:28:26;17.98;;;7.82;;
43048;SDS011;28673;44.412;11.918;2023-09-12T05:30:52;11.27;;;7.85;;
43048;SDS011;28673;44.412;11.918;2023-09-12T05:33:18;10.88;;;7.82;;
43048;SDS011;28673;44.412;11.918;2023-09-12T05:35:44;9.95;;;7.75;;
43048;SDS011;28673;44.412;11.918;2023-09-12T05:38:11;12.20;;;8.00;;
43048;SDS011;28673;44.412;11.918;2023-09-12T05:40:37;11.95;;;8.48;;
43048;SDS011;28673;44.412;11.918;2023-09-12T05:43:02;11.52;;;7.90;;
43048;SDS011;28673;44.412;11.918;2023-09-12T05:45:28;11.57;;;8.68;;
43048;SDS011;28673;44.412;11.918;2023-09-12T05:47:56;13.05;;;8.38;;
43048;SDS011;28673;44.412;11.918;2023-09-12T05:50:22;14.38;;;8.40;;
43048;SDS011;28673;44.412;11.918;2023-09-12T05:52:49;10.00;;;7.85;;
43048;SDS011;28673;44.412;11.918;2023-09-12T05:55:17;14.95;;;8.60;;
43048;SDS011;28673;44.412;11.918;2023-09-12T05:57:43;14.35;;;8.05;;
43048;SDS011;28673;44.412;11.918;2023-09-12T06:00:09;14.82;;;9.23;;
43048;SDS011;28673;44.412;11.918;2023-09-12T06:02:41;15.20;;;8.35;;
43048;SDS011;28673;44.412;11.918;2023-09-12T06:05:07;10.63;;;8.27;;
43048;SDS011;28673;44.412;11.918;2023-09-12T06:07:34;11.45;;;7.85;;
43048;SDS011;28673;44.412;11.918;2023-09-12T06:10:00;15.43;;;8.57;;
43048;SDS011;28673;44.412;11.918;2023-09-12T06:12:26;16.25;;;9.93;;
43048;SDS011;28673;44.412;11.918;2023-09-12T06:14:52;17.42;;;10.02;;
43048;SDS011;28673;44.412;11.918;2023-09-12T06:17:21;16.90;;;9.43;;
43048;SDS011;28673;44.412;11.918;2023-09-12T06:19:48;16.98;;;8.80;;
43048;SDS011;28673;44.412;11.918;2023-09-12T06:22:16;11.55;;;8.70;;
43048;SDS011;28673;44.412;11.918;2023-09-12T06:24:43;10.95;;;7.65;;
43048;SDS011;28673;44.412;11.918;2023-09-12T06:27:09;18.30;;;8.45;;
43048;SDS011;28673;44.412;11.918;2023-09-12T06:29:38;14.85;;;8.80;;
43048;SDS011;28673;44.412;11.918;2023-09-12T06:32:04;17.30;;;9.85;;
43048;SDS011;28673;44.412;11.918;2023-09-12T06:34:30;25.20;;;12.32;;
43048;SDS011;28673;44.412;11.918;2023-09-12T06:36:56;21.33;;;11.35;;
43048;SDS011;28673;44.412;11.918;2023-09-12T06:39:22;28.35;;;14.48;;
43048;SDS011;28673;44.412;11.918;2023-09-12T06:41:49;22.13;;;12.55;;
43048;SDS011;28673;44.412;11.918;2023-09-12T06:44:18;17.45;;;9.43;;
43048;SDS011;28673;44.412;11.918;2023-09-12T06:46:46;13.70;;;9.15;;
43048;SDS011;28673;44.412;11.918;2023-09-12T06:49:12;20.15;;;11.55;;
43048;SDS011;28673;44.412;11.918;2023-09-12T06:51:38;44.15;;;18.60;;
43048;SDS011;28673;44.412;11.918;2023-09-12T06:54:04;55.13;;;22.67;;
43048;SDS011;28673;44.412;11.918;2023-09-12T06:56:30;38.75;;;15.13;;
43048;SDS011;28673;44.412;11.918;2023-09-12T06:58:55;22.95;;;13.98;;
43048;SDS011;28673;44.412;11.918;2023-09-12T07:01:23;25.23;;;12.75;;
43048;SDS011;28673;44.412;11.918;2023-09-12T07:03:48;20.90;;;10.32;;
43048;SDS011;28673;44.412;11.918;2023-09-12T07:06:19;22.73;;;9.30;;
43048;SDS011;28673;44.412;11.918;2023-09-12T07:08:45;18.50;;;11.23;;
43048;SDS011;28673;44.412;11.918;2023-09-12T07:11:10;22.13;;;15.95;;
43048;SDS011;28673;44.412;11.918;2023-09-12T07:13:36;23.27;;;13.93;;
43048;SDS011;28673;44.412;11.918;2023-09-12T07:16:02;25.02;;;13.52;;
43048;SDS011;28673;44.412;11.918;2023-09-12T07:18:29;19.20;;;13.00;;
43048;SDS011;28673;44.412;11.918;2023-09-12T07:21:01;32.00;;;14.95;;
43048;SDS011;28673;44.412;11.918;2023-09-12T07:23:28;24.45;;;14.02;;
43048;SDS011;28673;44.412;11.918;2023-09-12T07:25:54;37.08;;;17.90;;
43048;SDS011;28673;44.412;11.918;2023-09-12T07:28:24;31.13;;;17.45;;
43048;SDS011;28673;44.412;11.918;2023-09-12T07:30:57;31.42;;;17.17;;
43048;SDS011;28673;44.412;11.918;2023-09-12T07:33:23;27.58;;;13.73;;
43048;SDS011;28673;44.412;11.918;2023-09-12T07:35:53;26.15;;;14.35;;
43048;SDS011;28673;44.412;11.918;2023-09-12T07:40:45;17.73;;;10.65;;
43048;SDS011;28673;44.412;11.918;2023-09-12T07:43:11;18.15;;;11.15;;
43048;SDS011;28673;44.412;11.918;2023-09-12T07:45:37;24.00;;;10.25;;
43048;SDS011;28673;44.412;11.918;2023-09-12T07:48:08;16.05;;;9.32;;
43048;SDS011;28673;44.412;11.918;2023-09-12T07:50:36;17.17;;;11.35;;
43048;SDS011;28673;44.412;11.918;2023-09-12T07:53:05;26.48;;;13.52;;
43048;SDS011;28673;44.412;11.918;2023-09-12T07:55:37;21.10;;;15.00;;
43048;SDS011;28673;44.412;11.918;2023-09-12T07:58:11;25.27;;;14.82;;
43048;SDS011;28673;44.412;11.918;2023-09-12T08:00:38;28.52;;;16.15;;
43048;SDS011;28673;44.412;11.918;2023-09-12T08:03:04;38.70;;;17.73;;
43048;SDS011;28673;44.412;11.918;2023-09-12T08:05:30;26.30;;;14.60;;
43048;SDS011;28673;44.412;11.918;2023-09-12T08:07:56;23.00;;;13.98;;
43048;SDS011;28673;44.412;11.918;2023-09-12T08:10:22;24.38;;;17.08;;
43048;SDS011;28673;44.412;11.918;2023-09-12T08:12:48;27.17;;;16.33;;
43048;SDS011;28673;44.412;11.918;2023-09-12T08:15:13;30.48;;;16.33;;
43048;SDS011;28673;44.412;11.918;2023-09-12T08:17:39;18.48;;;13.43;;
43048;SDS011;28673;44.412;11.918;2023-09-12T08:20:06;17.35;;;10.98;;
43048;SDS011;28673;44.412;11.918;2023-09-12T08:22:35;11.50;;;9.73;;
43048;SDS011;28673;44.412;11.918;2023-09-12T08:25:02;22.90;;;8.82;;
43048;SDS011;28673;44.412;11.918;2023-09-12T08:27:28;12.82;;;8.38;;
43048;SDS011;28673;44.412;11.918;2023-09-12T08:29:54;15.43;;;8.32;;
43048;SDS011;28673;44.412;11.918;2023-09-12T08:32:20;11.70;;;8.50;;
43048;SDS011;28673;44.412;11.918;2023-09-12T08:34:45;18.05;;;8.27;;
43048;SDS011;28673;44.412;11.918;2023-09-12T08:37:11;10.77;;;7.68;;
43048;SDS011;28673;44.412;11.918;2023-09-12T08:39:41;10.32;;;7.43;;
43048;SDS011;28673;44.412;11.918;2023-09-12T08:42:13;8.85;;;7.30;;
43048;SDS011;28673;44.412;11.918;2023-09-12T08:44:41;11.20;;;6.82;;
43048;SDS011;28673;44.412;11.918;2023-09-12T08:47:08;11.13;;;7.22;;
43048;SDS011;28673;44.412;11.918;2023-09-12T08:49:37;13.95;;;7.30;;
43048;SDS011;28673;44.412;11.918;2023-09-12T08:52:04;11.23;;;7.07;;
43048;SDS011;28673;44.412;11.918;2023-09-12T08:54:33;10.93;;;6.47;;
43048;SDS011;28673;44.412;11.918;2023-09-12T08:57:02;11.30;;;6.82;;
43048;SDS011;28673;44.412;11.918;2023-09-12T09:01:59;10.43;;;6.70;;
43048;SDS011;28673;44.412;11.918;2023-09-12T09:04:28;12.55;;;7.03;;
43048;SDS011;28673;44.412;11.918;2023-09-12T09:06:56;12.70;;;8.00;;
43048;SDS011;28673;44.412;11.918;2023-09-12T09:09:24;10.55;;;7.35;;
43048;SDS011;28673;44.412;11.918;2023-09-12T09:11:55;8.75;;;7.57;;
43048;SDS011;28673;44.412;11.918;2023-09-12T09:14:21;8.65;;;6.95;;
43048;SDS011;28673;44.412;11.918;2023-09-12T09:16:46;10.40;;;6.45;;
43048;SDS011;28673;44.412;11.918;2023-09-12T09:19:12;12.40;;;6.70;;
43048;SDS011;28673;44.412;11.918;2023-09-12T09:21:38;9.93;;;6.65;;
43048;SDS011;28673;44.412;11.918;2023-09-12T09:24:06;9.00;;;6.43;;
43048;SDS011;28673;44.412;11.918;2023-09-12T09:26:44;12.20;;;7.00;;
43048;SDS011;28673;44.412;11.918;2023-09-12T09:29:14;12.73;;;5.60;;
43048;SDS011;28673;44.412;11.918;2023-09-12T09:31:42;7.72;;;6.32;;
43048;SDS011;28673;44.412;11.918;2023-09-12T09:34:12;13.60;;;6.10;;
43048;SDS011;28673;44.412;11.918;2023-09-12T09:39:15;7.70;;;6.03;;
43048;SDS011;28673;44.412;11.918;2023-09-12T09:41:53;7.70;;;5.97;;
43048;SDS011;28673;44.412;11.918;2023-09-12T09:44:21;6.93;;;5.55;;
43048;SDS011;28673;44.412;11.918;2023-09-12T09:46:54;10.18;;;6.20;;
43048;SDS011;28673;44.412;11.918;2023-09-12T09:49:32;15.70;;;6.65;;
43048;SDS011;28673;44.412;11.918;2023-09-12T09:51:59;8.48;;;6.45;;
43048;SDS011;28673;44.412;11.918;2023-09-12T09:54:29;10.90;;;5.60;;
43048;SDS011;28673;44.412;11.918;2023-09-12T09:56:56;9.85;;;6.38;;
43048;SDS011;28673;44.412;11.918;2023-09-12T09:59:23;10.20;;;6.45;;
43048;SDS011;28673;44.412;11.918;2023-09-12T10:01:50;6.05;;;5.45;;
43048;SDS011;28673;44.412;11.918;2023-09-12T10:04:22;6.60;;;5.88;;
43048;SDS011;28673;44.412;11.918;2023-09-12T10:06:49;7.07;;;5.68;;
43048;SDS011;28673;44.412;11.918;2023-09-12T10:09:15;7.75;;;6.03;;
43048;SDS011;28673;44.412;11.918;2023-09-12T10:11:42;8.45;;;5.50;;
43048;SDS011;28673;44.412;11.918;2023-09-12T10:14:11;15.18;;;6.45;;
43048;SDS011;28673;44.412;11.918;2023-09-12T10:16:47;11.75;;;5.95;;
43048;SDS011;28673;44.412;11.918;2023-09-12T10:19:18;9.35;;;6.18;;
43048;SDS011;28673;44.412;11.918;2023-09-12T10:22:04;5.70;;;5.18;;
43048;SDS011;28673;44.412;11.918;2023-09-12T10:24:32;10.15;;;6.43;;
43048;SDS011;28673;44.412;11.918;2023-09-12T10:27:00;8.02;;;5.38;;
43048;SDS011;28673;44.412;11.918;2023-09-12T10:29:30;6.78;;;5.47;;
43048;SDS011;28673;44.412;11.918;2023-09-12T10:31:56;11.48;;;6.43;;
43048;SDS011;28673;44.412;11.918;2023-09-12T10:34:22;9.45;;;5.35;;
43048;SDS011;28673;44.412;11.918;2023-09-12T10:36:51;6.35;;;5.55;;
43048;SDS011;28673;44.412;11.918;2023-09-12T10:39:20;7.70;;;5.65;;
43048;SDS011;28673;44.412;11.918;2023-09-12T10:41:52;13.15;;;5.63;;
43048;SDS011;28673;44.412;11.918;2023-09-12T10:44:19;9.02;;;5.80;;
43048;SDS011;28673;44.412;11.918;2023-09-12T10:46:46;12.10;;;5.60;;
43048;SDS011;28673;44.412;11.918;2023-09-12T10:49:14;9.18;;;5.28;;
43048;SDS011;28673;44.412;11.918;2023-09-12T10:51:41;6.88;;;6.13;;
43048;SDS011;28673;44.412;11.918;2023-09-12T10:54:08;9.55;;;5.82;;
43048;SDS011;28673;44.412;11.918;2023-09-12T10:56:37;8.27;;;5.13;;
43048;SDS011;28673;44.412;11.918;2023-09-12T11:01:29;6.25;;;5.63;;
43048;SDS011;28673;44.412;11.918;2023-09-12T11:03:56;8.77;;;6.22;;
43048;SDS011;28673;44.412;11.918;2023-09-12T11:06:23;11.32;;;5.68;;
43048;SDS011;28673;44.412;11.918;2023-09-12T11:11:42;12.10;;;5.10;;
43048;SDS011;28673;44.412;11.918;2023-09-12T11:14:15;7.22;;;5.78;;
43048;SDS011;28673;44.412;11.918;2023-09-12T11:17:29;9.68;;;5.57;;
43048;SDS011;28673;44.412;11.918;2023-09-12T11:19:51;10.52;;;5.55;;
43048;SDS011;28673;44.412;11.918;2023-09-12T11:22:28;10.15;;;5.72;;
43048;SDS011;28673;44.412;11.918;2023-09-12T11:25:03;12.57;;;6.68;;
43048;SDS011;28673;44.412;11.918;2023-09-12T11:28:16;14.13;;;6.40;;
43048;SDS011;28673;44.412;11.918;2023-09-12T11:30:19;9.07;;;5.47;;
43048;SDS011;28673;44.412;11.918;2023-09-12T11:32:47;9.60;;;6.10;;
43048;SDS011;28673;44.412;11.918;2023-09-12T11:35:16;9.75;;;5.30;;
43048;SDS011;28673;44.412;11.918;2023-09-12T11:37:48;7.63;;;5.80;;
43048;SDS011;28673;44.412;11.918;2023-09-12T11:42:42;6.80;;;5.97;;
43048;SDS011;28673;44.412;11.918;2023-09-12T11:45:09;18.73;;;6.45;;
43048;SDS011;28673;44.412;11.918;2023-09-12T11:47:42;8.00;;;5.38;;
43048;SDS011;28673;44.412;11.918;2023-09-12T11:50:25;9.35;;;5.70;;
43048;SDS011;28673;44.412;11.918;2023-09-12T11:53:01;8.73;;;5.57;;
43048;SDS011;28673;44.412;11.918;2023-09-12T11:55:31;6.97;;;6.28;;
43048;SDS011;28673;44.412;11.918;2023-09-12T11:57:59;10.25;;;6.15;;
43048;SDS011;28673;44.412;11.918;2023-09-12T12:00:25;12.27;;;6.05;;
43048;SDS011;28673;44.412;11.918;2023-09-12T12:02:52;7.20;;;5.97;;
43048;SDS011;28673;44.412;11.918;2023-09-12T12:05:19;7.80;;;5.72;;
43048;SDS011;28673;44.412;11.918;2023-09-12T12:07:46;8.75;;;5.45;;
43048;SDS011;28673;44.412;11.918;2023-09-12T12:10:12;7.97;;;6.40;;
43048;SDS011;28673;44.412;11.918;2023-09-12T12:12:38;7.63;;;5.47;;
43048;SDS011;28673;44.412;11.918;2023-09-12T12:15:09;6.05;;;5.43;;
43048;SDS011;28673;44.412;11.918;2023-09-12T12:17:41;9.95;;;6.20;;
43048;SDS011;28673;44.412;11.918;2023-09-12T12:20:08;13.63;;;5.65;;
43048;SDS011;28673;44.412;11.918;2023-09-12T12:22:39;7.53;;;5.38;;
43048;SDS011;28673;44.412;11.918;2023-09-12T12:27:38;10.30;;;6.10;;
43048;SDS011;28673;44.412;11.918;2023-09-12T12:30:05;7.05;;;5.97;;
43048;SDS011;28673;44.412;11.918;2023-09-12T12:32:39;11.85;;;5.90;;
43048;SDS011;28673;44.412;11.918;2023-09-12T12:35:06;7.88;;;5.47;;
43048;SDS011;28673;44.412;11.918;2023-09-12T12:37:32;9.15;;;5.78;;
43048;SDS011;28673;44.412;11.918;2023-09-12T12:39:59;7.68;;;5.88;;
43048;SDS011;28673;44.412;11.918;2023-09-12T12:42:38;5.78;;;4.95;;
43048;SDS011;28673;44.412;11.918;2023-09-12T12:47:46;8.40;;;5.50;;
43048;SDS011;28673;44.412;11.918;2023-09-12T12:50:16;6.18;;;5.13;;
43048;SDS011;28673;44.412;11.918;2023-09-12T12:52:46;10.57;;;5.22;;
43048;SDS011;28673;44.412;11.918;2023-09-12T12:55:14;6.75;;;5.47;;
43048;SDS011;28673;44.412;11.918;2023-09-12T12:57:42;7.78;;;5.90;;
43048;SDS011;28673;44.412;11.918;2023-09-12T13:00:10;9.35;;;5.55;;
43048;SDS011;28673;44.412;11.918;2023-09-12T13:02:37;10.68;;;5.65;;
43048;SDS011;28673;44.412;11.918;2023-09-12T13:05:04;6.85;;;5.65;;
43048;SDS011;28673;44.412;11.918;2023-09-12T13:07:36;13.38;;;5.95;;
43048;SDS011;28673;44.412;11.918;2023-09-12T13:10:02;7.57;;;5.88;;
43048;SDS011;28673;44.412;11.918;2023-09-12T13:12:30;7.28;;;5.32;;
43048;SDS011;28673;44.412;11.918;2023-09-12T13:14:55;7.30;;;5.35;;
43048;SDS011;28673;44.412;11.918;2023-09-12T13:17:21;7.05;;;5.88;;
43048;SDS011;28673;44.412;11.918;2023-09-12T13:19:48;9.40;;;6.25;;
43048;SDS011;28673;44.412;11.918;2023-09-12T13:22:14;11.52;;;5.20;;
43048;SDS011;28673;44.412;11.918;2023-09-12T13:24:40;8.70;;;5.15;;
43048;SDS011;28673;44.412;11.918;2023-09-12T13:27:06;9.55;;;5.28;;
43048;SDS011;28673;44.412;11.918;2023-09-12T13:29:32;7.95;;;4.80;;
43048;SDS011;28673;44.412;11.918;2023-09-12T13:31:57;6.95;;;5.15;;
43048;SDS011;28673;44.412;11.918;2023-09-12T13:34:23;8.50;;;5.00;;
43048;SDS011;28673;44.412;11.918;2023-09-12T13:36:49;6.70;;;5.55;;
43048;SDS011;28673;44.412;11.918;2023-09-12T13:39:15;10.57;;;4.65;;
43048;SDS011;28673;44.412;11.918;2023-09-12T13:41:42;7.97;;;6.05;;
43048;SDS011;28673;44.412;11.918;2023-09-12T13:44:10;6.97;;;5.18;;
43048;SDS011;28673;44.412;11.918;2023-09-12T13:46:36;9.07;;;5.05;;
43048;SDS011;28673;44.412;11.918;2023-09-12T13:49:09;7.18;;;5.03;;
43048;SDS011;28673;44.412;11.918;2023-09-12T13:51:35;6.10;;;5.07;;
43048;SDS011;28673;44.412;11.918;2023-09-12T13:54:01;10.65;;;5.38;;
43048;SDS011;28673;44.412;11.918;2023-09-12T13:56:28;9.82;;;5.63;;
43048;SDS011;28673;44.412;11.918;2023-09-12T13:58:54;9.00;;;4.93;;
43048;SDS011;28673;44.412;11.918;2023-09-12T14:01:20;7.22;;;5.55;;
43048;SDS011;28673;44.412;11.918;2023-09-12T14:03:48;8.07;;;5.30;;
43048;SDS011;28673;44.412;11.918;2023-09-12T14:06:14;8.60;;;5.50;;
43048;SDS011;28673;44.412;11.918;2023-09-12T14:08:40;11.32;;;5.10;;
43048;SDS011;28673;44.412;11.918;2023-09-12T14:11:06;9.23;;;5.43;;
43048;SDS011;28673;44.412;11.918;2023-09-12T14:13:32;10.52;;;5.25;;
43048;SDS011;28673;44.412;11.918;2023-09-12T14:15:57;11.70;;;5.10;;
43048;SDS011;28673;44.412;11.918;2023-09-12T14:18:24;11.20;;;5.18;;
43048;SDS011;28673;44.412;11.918;2023-09-12T14:20:50;12.10;;;5.18;;
43048;SDS011;28673;44.412;11.918;2023-09-12T14:23:16;9.88;;;6.55;;
43048;SDS011;28673;44.412;11.918;2023-09-12T14:25:42;13.30;;;6.90;;
43048;SDS011;28673;44.412;11.918;2023-09-12T14:28:08;8.65;;;7.13;;
43048;SDS011;28673;44.412;11.918;2023-09-12T14:30:35;6.95;;;6.25;;
43048;SDS011;28673;44.412;11.918;2023-09-12T14:33:03;14.75;;;7.15;;
43048;SDS011;28673;44.412;11.918;2023-09-12T14:35:29;14.50;;;7.25;;
43048;SDS011;28673;44.412;11.918;2023-09-12T14:37:55;13.18;;;7.00;;
43048;SDS011;28673;44.412;11.918;2023-09-12T14:40:21;12.13;;;6.70;;
43048;SDS011;28673;44.412;11.918;2023-09-12T14:42:47;11.45;;;6.75;;
43048;SDS011;28673;44.412;11.918;2023-09-12T14:45:13;12.15;;;6.55;;
43048;SDS011;28673;44.412;11.918;2023-09-12T14:47:40;15.27;;;6.53;;
43048;SDS011;28673;44.412;11.918;2023-09-12T14:50:06;17.58;;;6.72;;